Clifton Forge, VA (24422)

1:56 PM EDT on October 31, 2014 (GMT -0400)
Alleghany Street | Change Station
CLOSE
Current Station
Personal Weather Station
Location: Clifton Forge, VA
Elevation: 1175 ft
Nearby Weather Stations

Elev 1175 ft 37.81 °N, 79.84 °W | Updated 1 minute ago

Overcast
Overcast
51.4 °F
Feels Like 51.4 °F
N
1.7
Wind Variable Wind from SSE

Today
High -- | Low -- °F
--% Chance of Precip.
Yesterday
High -- | Low -- °F
Precip. -- in
7:43 AM 6:21 PM
First Quarter, 57% visible
Pressure 29.86 in
Visibility 10.0 miles
Clouds Scattered Clouds 2600 ft
Mostly Cloudy 3400 ft
Overcast 7000 ft
Dew Point 37 °F
Humidity 58%
Rainfall 0.00 in
Snow Depth Not available.
UV 1 out of 12
Pollen .10 out of 12
Air Quality Not available.
Flu Activity Not available.
METAR KLWB 311735Z AUTO 23005KT 10SM SCT026 BKN034 OVC070 09/02 A2986 RMK AO2 T00910019

More Conditions Fewer Conditions

Pressure 29.86 in
Visibility 10.0 miles
Clouds Scattered Clouds 2600 ft
Mostly Cloudy 3400 ft
Overcast 7000 ft
Dew Point 37 °F
Humidity 58%
Rainfall 0.00 in
Snow Depth Not available.
UV 1 out of 12
Pollen .10 out of 12
Air Quality Not available.
Flu Activity Not available.
METAR KLWB 311735Z AUTO 23005KT 10SM SCT026 BKN034 OVC070 09/02 A2986 RMK AO2 T00910019

More Conditions Fewer Conditions

10-Day Weather Forecast

Almanac

Astronomy

Oct. 31, 2014 Rise Set
Actual Time
Civil Twilight
Nautical Twilight
Astronomical Twilight
Moon
Length of Visible Light
Length of Day
Tomorrow will be .
, % of the Moon is Illuminated

Today's Extremes

State Highs State Lows

Community

WunderPhotos

Upload Photos

1,766,673 photos uploaded!

WunderBlogs® & News

Nearby

Air Quality

  Air Quality AQ Index Pollutant
Not available.

Snow Depth

Station Depth Elevation

Earthquake Activity

City Distance Mag. Time & Date
Minimum magnitude displayed is 2.5.

Coastal Water Temperatures

Place Temperature

Nearby Weather Stations